createdAt,value
2019-03-08T00:01:42.773Z,96637.13
2019-03-08T00:03:44.440Z,96649.70
2019-03-08T00:05:46.042Z,96635.26
2019-03-08T00:07:47.709Z,96638.31
2019-03-08T00:09:49.319Z,96645.06
2019-03-08T00:11:50.934Z,96647.06
2019-03-08T00:13:52.540Z,96643.09
2019-03-08T00:15:54.150Z,96643.20
2019-03-08T00:17:55.795Z,96637.23
2019-03-08T00:19:57.440Z,96639.27
2019-03-08T00:21:59.112Z,96630.13
2019-03-08T00:24:00.712Z,96634.84
2019-03-08T00:26:04.288Z,96629.40
2019-03-08T00:28:04.025Z,96632.92
2019-03-08T00:30:05.651Z,96634.20
2019-03-08T00:32:07.262Z,96638.23
2019-03-08T00:34:08.866Z,96629.59
2019-03-08T00:36:10.469Z,96634.98
2019-03-08T00:38:12.064Z,96635.62
2019-03-08T00:40:13.719Z,96628.79
2019-03-08T00:42:15.330Z,96632.57
2019-03-08T00:44:16.947Z,96632.48
2019-03-08T00:46:18.540Z,96638.98
2019-03-08T00:48:20.197Z,96636.54
2019-03-08T00:50:21.839Z,96640.53
2019-03-08T00:52:23.455Z,96641.20
2019-03-08T00:54:25.059Z,96644.31
2019-03-08T00:56:26.666Z,96646.56
2019-03-08T00:58:28.292Z,96638.89
2019-03-08T01:00:29.913Z,96632.79
2019-03-08T01:02:31.522Z,96634.70
2019-03-08T01:04:33.135Z,96637.45
2019-03-08T01:06:34.793Z,96634.34
2019-03-08T01:08:36.406Z,96631.32
2019-03-08T01:10:38.037Z,96629.54
2019-03-08T01:12:39.665Z,96621.29
2019-03-08T01:14:41.261Z,96615.70
2019-03-08T01:16:43.540Z,96617.76
2019-03-08T01:18:45.132Z,96623.54
2019-03-08T01:20:46.733Z,96618.11
2019-03-08T01:22:48.370Z,96613.66
2019-03-08T01:24:50.015Z,96619.31
2019-03-08T01:26:51.636Z,96613.27
2019-03-08T01:28:53.237Z,96608.36
2019-03-08T01:30:54.838Z,96606.12
2019-03-08T01:32:56.469Z,96608.90
2019-03-08T01:34:58.086Z,96596.38
2019-03-08T01:36:59.698Z,96595.56
2019-03-08T01:39:01.308Z,96589.30
2019-03-08T01:41:02.919Z,96594.71
2019-03-08T01:43:04.553Z,96601.43
2019-03-08T01:45:06.186Z,96588.30
2019-03-08T01:47:07.786Z,96582.73
2019-03-08T01:49:09.422Z,96591.98
2019-03-08T01:51:11.065Z,96577.16
2019-03-08T01:53:12.651Z,96580.09
2019-03-08T01:55:14.305Z,96586.48
2019-03-08T01:57:15.928Z,96582.59
2019-03-08T01:59:17.571Z,96590.41
2019-03-08T02:01:19.191Z,96578.60
2019-03-08T02:03:20.798Z,96592.80
2019-03-08T02:05:22.433Z,96581.91
2019-03-08T02:07:24.024Z,96578.47
2019-03-08T02:09:25.692Z,96592.38
2019-03-08T02:11:27.312Z,96598.27
2019-03-08T02:13:28.905Z,96592.23
2019-03-08T02:15:30.536Z,96589.70
2019-03-08T02:17:32.128Z,96593.06
2019-03-08T02:19:33.726Z,96585.87
2019-03-08T02:21:35.338Z,96584.42
2019-03-08T02:23:36.929Z,96581.53
2019-03-08T02:25:38.566Z,96579.06
2019-03-08T02:27:40.215Z,96581.05
2019-03-08T02:29:41.820Z,96579.05
2019-03-08T02:31:43.426Z,96569.30
2019-03-08T02:33:45.043Z,96571.99
2019-03-08T02:35:46.649Z,96560.30
2019-03-08T02:37:48.264Z,96558.50
2019-03-08T02:39:49.910Z,96556.00
2019-03-08T02:41:51.517Z,96556.36
2019-03-08T02:43:53.122Z,96556.83
2019-03-08T02:45:54.725Z,96549.53
2019-03-08T02:47:56.387Z,96540.02
2019-03-08T02:49:58.021Z,96530.52
2019-03-08T02:51:59.625Z,96534.13
2019-03-08T02:54:01.243Z,96523.62
2019-03-08T02:56:02.862Z,96520.47
2019-03-08T02:58:04.527Z,96526.33
2019-03-08T03:00:06.157Z,96518.48
2019-03-08T03:02:07.770Z,96528.33
2019-03-08T03:04:09.380Z,96531.55
2019-03-08T03:06:10.990Z,96539.60
2019-03-08T03:08:12.660Z,96533.59
2019-03-08T03:10:14.272Z,96539.34
2019-03-08T03:12:15.869Z,96539.75
2019-03-08T03:14:17.470Z,96537.34
2019-03-08T03:16:19.105Z,96546.52
2019-03-08T03:18:20.776Z,96548.89
2019-03-08T03:20:22.385Z,96548.95
2019-03-08T03:22:24.004Z,96547.64
2019-03-08T03:24:25.652Z,96538.59
2019-03-08T03:26:27.257Z,96547.13
2019-03-08T03:28:28.871Z,96542.57
2019-03-08T03:30:30.568Z,96550.30
2019-03-08T03:32:32.184Z,96559.62
2019-03-08T03:34:33.797Z,96553.80
2019-03-08T03:36:35.398Z,96564.91
2019-03-08T03:38:37.016Z,96552.22
2019-03-08T03:40:38.661Z,96564.58
2019-03-08T03:42:40.277Z,96563.21
2019-03-08T03:44:41.907Z,96560.66
2019-03-08T03:46:43.522Z,96547.13
2019-03-08T03:48:45.164Z,96546.72
2019-03-08T03:50:46.770Z,96549.66
2019-03-08T03:52:48.384Z,96551.24
2019-03-08T03:54:50.024Z,96548.18
2019-03-08T03:56:53.510Z,96551.21
2019-03-08T03:58:53.363Z,96565.57
2019-03-08T04:00:54.974Z,96567.59
2019-03-08T04:02:56.605Z,96565.98
2019-03-08T04:04:58.209Z,96571.84
2019-03-08T04:06:59.859Z,96574.84
2019-03-08T04:09:01.466Z,96542.23
2019-03-08T04:11:03.071Z,96585.39
2019-03-08T04:13:04.680Z,96582.84
2019-03-08T04:15:06.332Z,96583.39
2019-03-08T04:17:07.951Z,96592.64
2019-03-08T04:19:09.563Z,96604.72
2019-03-08T04:21:11.182Z,96605.33
2019-03-08T04:23:12.791Z,96609.30
2019-03-08T04:25:14.458Z,96612.70
2019-03-08T04:27:16.074Z,96615.33
2019-03-08T04:29:17.677Z,96624.20
2019-03-08T04:31:19.269Z,96625.78
2019-03-08T04:33:20.918Z,96619.41
2019-03-08T04:35:22.531Z,96610.19
2019-03-08T04:37:24.152Z,96606.33
2019-03-08T04:39:25.771Z,96606.83
2019-03-08T04:41:27.423Z,96599.16
2019-03-08T04:43:29.029Z,96603.97
2019-03-08T04:45:30.648Z,96594.36
2019-03-08T04:47:32.286Z,96587.11
2019-03-08T04:49:33.908Z,96596.94
2019-03-08T04:51:35.770Z,96589.84
2019-03-08T04:53:37.404Z,96589.53
2019-03-08T04:55:39.009Z,96587.06
2019-03-08T04:57:40.659Z,96585.79
2019-03-08T04:59:42.266Z,96576.52
2019-03-08T05:01:43.927Z,96577.70
2019-03-08T05:03:45.529Z,96575.31
2019-03-08T05:05:47.134Z,96571.27
2019-03-08T05:07:48.784Z,96572.41
2019-03-08T05:09:50.390Z,96582.05
2019-03-08T05:11:52.029Z,96581.44
2019-03-08T05:13:53.664Z,96585.88
2019-03-08T05:15:55.265Z,96590.83
2019-03-08T05:17:58.428Z,96602.04
2019-03-08T05:19:58.566Z,96597.52
2019-03-08T05:22:00.202Z,96595.02
2019-03-08T05:24:01.810Z,96598.84
2019-03-08T05:26:03.413Z,96590.22
2019-03-08T05:28:05.076Z,96587.11
2019-03-08T05:30:06.696Z,96598.05
2019-03-08T05:32:08.297Z,96595.16
2019-03-08T05:34:09.888Z,96588.41
2019-03-08T05:36:11.499Z,96589.08
2019-03-08T05:38:13.115Z,96589.73
2019-03-08T05:40:14.738Z,96584.38
2019-03-08T05:42:16.354Z,96587.84
2019-03-08T05:44:18.011Z,96582.41
2019-03-08T05:46:19.665Z,96590.80
2019-03-08T05:48:21.308Z,96545.21
2019-03-08T05:50:22.917Z,96588.29
2019-03-08T05:52:24.517Z,96593.14
2019-03-08T05:54:26.206Z,96596.00
2019-03-08T05:56:27.848Z,96595.86
2019-03-08T05:58:29.444Z,96604.70
2019-03-08T06:00:32.701Z,96607.70
2019-03-08T06:02:32.701Z,96607.67
2019-03-08T06:04:34.323Z,96611.95
2019-03-08T06:06:35.952Z,96613.70
2019-03-08T06:08:37.721Z,96609.52
2019-03-08T06:10:39.392Z,96608.30
2019-03-08T06:12:41.006Z,96614.41
2019-03-08T06:14:42.635Z,96615.70
2019-03-08T06:16:44.264Z,96605.64
2019-03-08T06:18:45.918Z,96617.65
2019-03-08T06:20:47.530Z,96616.60
2019-03-08T06:22:49.128Z,96618.05
2019-03-08T06:24:50.764Z,96620.80
2019-03-08T06:26:52.365Z,96611.66
2019-03-08T06:28:54.011Z,96609.84
2019-03-08T06:30:55.621Z,96610.18
2019-03-08T06:32:57.230Z,96614.17
2019-03-08T06:34:58.866Z,96615.23
2019-03-08T06:37:00.515Z,96617.96
2019-03-08T06:39:02.112Z,96621.02
2019-03-08T06:41:03.723Z,96623.31
2019-03-08T06:43:05.352Z,96634.48
2019-03-08T06:45:07.004Z,96643.53
2019-03-08T06:47:08.632Z,96645.83
2019-03-08T06:49:10.253Z,96649.33
2019-03-08T06:51:11.863Z,96647.25
2019-03-08T06:53:13.476Z,96652.86
2019-03-08T06:55:15.113Z,96657.97
2019-03-08T06:57:16.740Z,96667.35
2019-03-08T06:59:18.360Z,96671.09
2019-03-08T07:01:19.970Z,96673.94
2019-03-08T07:03:21.626Z,96678.88
2019-03-08T07:05:23.339Z,96684.50
2019-03-08T07:07:25.420Z,96684.95
2019-03-08T07:09:27.043Z,96688.46
2019-03-08T07:11:28.656Z,96683.41
2019-03-08T07:13:30.284Z,96698.63
2019-03-08T07:15:31.898Z,96700.16
2019-03-08T07:17:33.554Z,96702.50
2019-03-08T07:19:40.797Z,96715.13
2019-03-08T07:21:36.897Z,96710.37
2019-03-08T07:23:44.464Z,96713.09
2019-03-08T07:25:54.425Z,96701.91
2019-03-08T07:28:12.182Z,96715.65
2019-03-08T07:30:13.790Z,96704.72
2019-03-08T07:32:15.397Z,96699.04
2019-03-08T07:34:17.050Z,96712.08
2019-03-08T07:36:21.613Z,96714.90
2019-03-08T07:38:38.120Z,96713.15
2019-03-08T07:40:41.454Z,96713.22
2019-03-08T07:42:45.110Z,96717.63
2019-03-08T07:44:51.122Z,96726.25
2019-03-08T07:47:07.662Z,96731.40
2019-03-08T07:49:11.895Z,96691.32
2019-03-08T07:51:19.155Z,96739.52
2019-03-08T07:53:24.319Z,96729.69
2019-03-08T07:55:35.837Z,96737.13
2019-03-08T07:57:46.169Z,96742.22
2019-03-08T07:59:53.963Z,96741.39
2019-03-08T08:02:04.781Z,96744.80
2019-03-08T08:04:12.295Z,96750.31
2019-03-08T08:06:17.375Z,96759.56
2019-03-08T08:08:21.659Z,96761.90
2019-03-08T08:10:25.925Z,96760.03
2019-03-08T08:12:28.458Z,96755.76
2019-03-08T08:14:39.491Z,96764.13
2019-03-08T08:16:42.179Z,96766.28
2019-03-08T08:18:47.765Z,96765.28
2019-03-08T08:20:52.280Z,96772.42
2019-03-08T08:22:56.487Z,96770.72
2019-03-08T08:25:09.738Z,96775.16
2019-03-08T08:27:17.042Z,96773.67
2019-03-08T08:29:24.375Z,96782.08
2019-03-08T08:31:40.876Z,96777.89
2019-03-08T08:33:46.468Z,96797.02
2019-03-08T08:35:53.880Z,96793.09
2019-03-08T08:37:57.096Z,96797.95
2019-03-08T08:40:08.628Z,96788.92
2019-03-08T08:42:15.815Z,96809.30
2019-03-08T08:44:17.920Z,96792.30
2019-03-08T08:46:34.419Z,96808.63
2019-03-08T08:48:42.005Z,96818.52
2019-03-08T08:51:00.332Z,96815.39
2019-03-08T08:53:03.709Z,96818.28
2019-03-08T08:55:07.184Z,96827.70
2019-03-08T08:57:14.539Z,96819.80
2019-03-08T08:59:18.831Z,96830.49
2019-03-08T09:01:22.981Z,96829.95
2019-03-08T09:03:43.312Z,96833.78
2019-03-08T09:05:45.710Z,96830.27
2019-03-08T09:07:52.143Z,96846.84
2019-03-08T09:09:58.253Z,96832.96
2019-03-08T09:12:04.388Z,96850.91
2019-03-08T09:14:06.851Z,96852.58
2019-03-08T09:16:09.987Z,96863.43
2019-03-08T09:18:17.402Z,96867.20
2019-03-08T09:20:24.725Z,96872.61
2019-03-08T09:22:26.344Z,96871.64
2019-03-08T09:24:42.843Z,96871.20
2019-03-08T09:27:01.326Z,96880.36
2019-03-08T09:29:06.522Z,96887.14
2019-03-08T09:31:10.784Z,96891.71
2019-03-08T09:33:29.171Z,96894.43
2019-03-08T09:35:45.666Z,96899.52
2019-03-08T09:37:49.191Z,96901.95
2019-03-08T09:39:52.228Z,96898.55
2019-03-08T09:41:57.410Z,96907.37
2019-03-08T09:44:04.516Z,96917.22
2019-03-08T09:46:07.706Z,96910.09
2019-03-08T09:48:09.324Z,96925.12
2019-03-08T09:50:14.977Z,96909.07
2019-03-08T09:52:17.537Z,96933.88
2019-03-08T09:54:39.850Z,96936.96
2019-03-08T09:56:58.326Z,96938.91
2019-03-08T09:59:03.716Z,96949.03
2019-03-08T10:01:24.254Z,96917.25
2019-03-08T10:03:40.760Z,96961.30
2019-03-08T10:05:43.784Z,96952.56
2019-03-08T10:07:48.293Z,96958.95
2019-03-08T10:09:52.383Z,96971.88
2019-03-08T10:11:58.966Z,96977.55
2019-03-08T10:18:34.617Z,96990.63
2019-03-08T10:20:41.170Z,96998.84
2019-03-08T10:22:42.772Z,96995.17
2019-03-08T10:24:45.217Z,97009.33
2019-03-08T10:27:01.655Z,97005.00
2019-03-08T10:29:19.034Z,97004.16
2019-03-08T10:31:35.577Z,96999.11
2019-03-08T10:33:46.472Z,97003.33
2019-03-08T10:35:47.013Z,97008.41
2019-03-08T10:37:50.204Z,97009.25
2019-03-08T10:40:07.628Z,97006.70
2019-03-08T10:42:15.671Z,97018.53
2019-03-08T10:44:19.975Z,97000.22
2019-03-08T10:46:38.359Z,97034.66
2019-03-08T10:48:41.559Z,97031.17
2019-03-08T10:50:44.142Z,96998.37
2019-03-08T10:53:00.608Z,97041.32
2019-03-08T10:55:10.959Z,97043.45
2019-03-08T10:57:27.460Z,97039.16
2019-03-08T10:59:29.065Z,97033.17
2019-03-08T11:01:47.056Z,97033.61
2019-03-08T11:04:06.077Z,97033.17
2019-03-08T11:06:07.655Z,97042.92
2019-03-08T11:08:11.859Z,97038.60
2019-03-08T11:10:17.144Z,97038.60
2019-03-08T11:12:19.373Z,97024.13
2019-03-08T11:14:41.797Z,97026.19
2019-03-08T11:16:46.328Z,97037.23
2019-03-08T11:18:51.420Z,97037.27
2019-03-08T11:20:58.717Z,97034.70
2019-03-08T11:23:15.238Z,97036.79
2019-03-08T11:25:35.041Z,97055.91
2019-03-08T11:27:33.882Z,97037.59
2019-03-08T11:29:35.995Z,97047.89
2019-03-08T11:31:37.594Z,97052.54
2019-03-08T11:33:49.153Z,97055.11
2019-03-08T11:35:50.756Z,97056.02
2019-03-08T11:37:58.308Z,97054.28
2019-03-08T11:40:13.782Z,97056.91
2019-03-08T11:42:35.294Z,97058.55
2019-03-08T11:44:52.717Z,97060.27
2019-03-08T11:46:58.792Z,97057.45
2019-03-08T11:49:02.932Z,97063.78
2019-03-08T11:51:16.288Z,97080.48
2019-03-08T11:53:27.804Z,97076.28
2019-03-08T11:55:35.427Z,97070.28
2019-03-08T11:57:44.717Z,97078.36
2019-03-08T12:00:01.220Z,97078.34
2019-03-08T12:02:08.888Z,97079.30
2019-03-08T12:04:13.298Z,97085.25
2019-03-08T12:06:30.629Z,97083.57
2019-03-08T12:08:32.255Z,97084.92
2019-03-08T12:10:54.691Z,97089.10
2019-03-08T12:13:11.232Z,97092.53
2019-03-08T12:15:27.727Z,97092.09
2019-03-08T12:17:31.110Z,97099.30
2019-03-08T12:19:36.685Z,97096.72
2019-03-08T12:21:43.949Z,97100.08
2019-03-08T12:23:48.441Z,97101.25
2019-03-08T12:25:50.065Z,97075.34
2019-03-08T12:28:08.413Z,97107.31
2019-03-08T12:30:24.946Z,97118.02
2019-03-08T12:32:27.202Z,97113.61
2019-03-08T12:34:40.440Z,97111.96
2019-03-08T12:36:47.725Z,97117.53
2019-03-08T12:38:59.984Z,97114.88
2019-03-08T12:41:05.199Z,97119.12
2019-03-08T12:43:08.333Z,97123.73
2019-03-08T12:45:11.982Z,97125.43
2019-03-08T12:47:19.351Z,97121.99
2019-03-08T12:49:22.393Z,97117.72
2019-03-08T12:51:38.900Z,97076.84
2019-03-08T12:53:58.217Z,97133.09
2019-03-08T12:56:02.907Z,97139.02
2019-03-08T12:58:04.638Z,97151.47
2019-03-08T13:00:10.927Z,97145.20
2019-03-08T13:02:18.112Z,97150.29
2019-03-08T13:04:24.373Z,97143.83
2019-03-08T13:06:26.604Z,97148.54
2019-03-08T13:08:45.926Z,97129.04
2019-03-08T13:10:47.529Z,97151.52
2019-03-08T13:12:49.142Z,97156.14
2019-03-08T13:14:50.748Z,97153.01
2019-03-08T13:16:52.416Z,97155.89
2019-03-08T13:18:54.063Z,97155.22
2019-03-08T13:20:55.817Z,97151.82
2019-03-08T13:22:57.506Z,97154.39
2019-03-08T13:24:59.106Z,97156.16
2019-03-08T13:27:10.650Z,97152.33
2019-03-08T13:29:12.336Z,97152.88
2019-03-08T13:31:13.947Z,97162.76
2019-03-08T13:33:16.189Z,97176.06
2019-03-08T13:35:17.797Z,97174.13
2019-03-08T13:37:19.413Z,97184.33
2019-03-08T13:39:21.019Z,97197.09
2019-03-08T13:41:22.634Z,97187.31
2019-03-08T13:43:24.283Z,97195.45
2019-03-08T13:45:26.340Z,97192.71
2019-03-08T13:47:28.522Z,97200.06
2019-03-08T13:49:30.194Z,97194.33
2019-03-08T13:51:31.829Z,97172.80
2019-03-08T13:53:33.580Z,97180.56
2019-03-08T13:55:35.176Z,97181.09
2019-03-08T13:57:36.794Z,97184.06
2019-03-08T13:59:38.401Z,97178.88
2019-03-08T14:01:40.020Z,97185.14
2019-03-08T14:03:41.675Z,97192.20
2019-03-08T14:05:43.327Z,97183.46
2019-03-08T14:07:44.957Z,97182.44
2019-03-08T14:09:46.586Z,97191.67
2019-03-08T14:11:48.262Z,97177.02
2019-03-08T14:13:49.879Z,97202.82
2019-03-08T14:15:52.196Z,97210.91
2019-03-08T14:17:54.076Z,97217.52
2019-03-08T14:19:55.691Z,97221.73
2019-03-08T14:21:57.294Z,97231.48
2019-03-08T14:23:58.917Z,97216.47
2019-03-08T14:26:00.527Z,97212.63
2019-03-08T14:28:02.223Z,97221.02
2019-03-08T14:30:03.900Z,97223.94
2019-03-08T14:32:05.514Z,97226.02
2019-03-08T14:34:10.796Z,97234.39
2019-03-08T14:36:08.845Z,97220.55
2019-03-08T14:38:10.505Z,97233.08
2019-03-08T14:40:32.758Z,97238.03
2019-03-08T14:42:36.991Z,97238.28
2019-03-08T14:44:42.140Z,97241.43
2019-03-08T14:46:45.233Z,97245.77
2019-03-08T14:48:47.427Z,97238.66
2019-03-08T14:50:48.559Z,97244.20
2019-03-08T14:52:50.208Z,97246.33
2019-03-08T14:54:52.166Z,97254.86
2019-03-08T14:56:54.086Z,97262.69
2019-03-08T14:58:55.728Z,97252.77
2019-03-08T15:00:57.586Z,97264.53
2019-03-08T15:02:59.553Z,97276.88
2019-03-08T15:05:10.686Z,97270.90
2019-03-08T15:07:04.595Z,97238.57
2019-03-08T15:09:04.877Z,97278.30
2019-03-08T15:11:07.777Z,97278.69
2019-03-08T15:13:08.242Z,97280.44
2019-03-08T15:15:11.416Z,97288.64
2019-03-08T15:17:13.351Z,97268.18
2019-03-08T15:19:13.215Z,97296.23
2019-03-08T15:21:14.864Z,97294.94
2019-03-08T15:23:17.149Z,97296.06
2019-03-08T15:25:18.136Z,97300.12
2019-03-08T15:27:19.747Z,97297.22
2019-03-08T15:29:21.428Z,97309.36
2019-03-08T15:31:23.122Z,97313.62
2019-03-08T15:33:24.739Z,97313.27
2019-03-08T15:35:26.356Z,97311.95
2019-03-08T15:37:27.997Z,97311.87
2019-03-08T15:39:29.603Z,97310.52
2019-03-08T15:41:31.217Z,97303.85
2019-03-08T15:43:33.102Z,97311.45
2019-03-08T15:45:35.209Z,97318.72
2019-03-08T15:47:37.383Z,97313.67
2019-03-08T15:49:38.571Z,97306.38
2019-03-08T15:51:40.211Z,97317.16
2019-03-08T15:53:41.868Z,97325.73
2019-03-08T15:55:52.637Z,97342.16
2019-03-08T15:57:45.197Z,97363.97
2019-03-08T15:59:46.857Z,97369.20
2019-03-08T16:01:48.582Z,97372.62
2019-03-08T16:03:50.192Z,97371.70
2019-03-08T16:05:51.841Z,97376.64
2019-03-08T16:07:53.446Z,97389.63
2019-03-08T16:09:55.043Z,97380.83
2019-03-08T16:11:56.682Z,97381.41
2019-03-08T16:13:58.288Z,97385.23
2019-03-08T16:15:59.911Z,97393.92
2019-03-08T16:18:01.536Z,97390.62
2019-03-08T16:20:03.993Z,97384.59
2019-03-08T16:22:05.360Z,97396.28
2019-03-08T16:24:07.018Z,97418.07
2019-03-08T16:26:08.618Z,97421.42
2019-03-08T16:28:10.877Z,97431.35
2019-03-08T16:30:11.953Z,97402.30
2019-03-08T16:32:29.377Z,97446.20
2019-03-08T16:34:30.977Z,97450.67
2019-03-08T16:36:34.404Z,97437.77
2019-03-08T16:38:53.963Z,97443.16
2019-03-08T16:41:02.110Z,97441.30
2019-03-08T16:43:07.174Z,97435.05
2019-03-08T16:45:20.313Z,97433.69
2019-03-08T16:47:22.436Z,97437.95
2019-03-08T16:49:24.078Z,97443.78
2019-03-08T16:51:34.525Z,97441.84
2019-03-08T16:53:36.297Z,97446.06
2019-03-08T16:55:45.164Z,97441.69
2019-03-08T16:57:49.229Z,97449.75
2019-03-08T16:59:53.588Z,97458.14
2019-03-08T17:01:56.784Z,97464.25
2019-03-08T17:03:58.386Z,97455.75
2019-03-08T17:06:15.722Z,97451.61
2019-03-08T17:08:32.950Z,97457.31
2019-03-08T17:10:35.099Z,97448.94
2019-03-08T17:12:48.436Z,97456.98
2019-03-08T17:15:08.752Z,97463.56
2019-03-08T17:17:16.039Z,97461.75
2019-03-08T17:19:28.367Z,97466.14
2019-03-08T17:21:30.336Z,97473.90
2019-03-08T17:23:38.740Z,97479.36
2019-03-08T17:25:43.883Z,97498.33
2019-03-08T17:27:45.534Z,97502.91
2019-03-08T17:30:02.978Z,97498.09
2019-03-08T17:32:04.620Z,97489.91
2019-03-08T17:34:07.127Z,97495.23
2019-03-08T17:36:23.639Z,97498.09
2019-03-08T17:38:25.914Z,97493.33
2019-03-08T17:40:47.204Z,97492.31
2019-03-08T17:43:00.598Z,97506.44
2019-03-08T17:45:15.924Z,97515.00
2019-03-08T17:47:17.572Z,97513.31
2019-03-08T17:49:27.841Z,97480.89
2019-03-08T17:51:31.880Z,97520.24
2019-03-08T17:53:48.406Z,97520.76
2019-03-08T17:56:03.782Z,97530.70
2019-03-08T17:58:20.284Z,97522.97
2019-03-08T18:00:22.415Z,97529.32
2019-03-08T18:02:32.831Z,97532.02
2019-03-08T18:04:40.277Z,97532.53
2019-03-08T18:07:00.142Z,97534.88
2019-03-08T18:09:17.425Z,97531.64
2019-03-08T18:11:34.844Z,97544.24
2019-03-08T18:13:38.958Z,97540.41
2019-03-08T18:15:52.588Z,97541.12
2019-03-08T18:17:55.058Z,97543.80
2019-03-08T18:20:02.404Z,97548.50
2019-03-08T18:22:13.958Z,97554.14
2019-03-08T18:24:36.404Z,97525.52
2019-03-08T18:26:43.589Z,97556.84
2019-03-08T18:28:45.668Z,97564.34
2019-03-08T18:31:04.085Z,97572.15
2019-03-08T18:33:24.495Z,97576.14
2019-03-08T18:35:30.668Z,97567.19
2019-03-08T18:37:34.850Z,97572.41
2019-03-08T18:39:51.338Z,97571.66
2019-03-08T18:41:54.773Z,97573.81
2019-03-08T18:43:59.847Z,97572.25
2019-03-08T18:46:16.339Z,97576.97
2019-03-08T18:48:22.572Z,97581.89
2019-03-08T18:50:40.174Z,97584.06
2019-03-08T18:52:44.696Z,97583.27
2019-03-08T18:54:50.760Z,97579.45
2019-03-08T18:57:02.322Z,97549.84
2019-03-08T18:59:21.893Z,97589.69
2019-03-08T19:01:25.986Z,97602.95
2019-03-08T19:03:43.542Z,97599.47
2019-03-08T19:05:47.629Z,97607.55
2019-03-08T19:07:51.168Z,97606.36
2019-03-08T19:10:03.489Z,97629.38
2019-03-08T19:12:07.111Z,97580.39
2019-03-08T19:14:24.584Z,97609.03
2019-03-08T19:16:41.289Z,97607.34
2019-03-08T19:18:43.424Z,97611.98
2019-03-08T19:20:47.933Z,97607.36
2019-03-08T19:22:54.464Z,97612.92
2019-03-08T19:25:11.754Z,97621.95
2019-03-08T19:27:14.785Z,97623.25
2019-03-08T19:29:19.310Z,97624.97
2019-03-08T19:31:27.699Z,97619.67
2019-03-08T19:33:45.039Z,97619.52
2019-03-08T19:35:49.344Z,97614.29
2019-03-08T19:38:02.694Z,97620.15
2019-03-08T19:40:22.193Z,97624.02
2019-03-08T19:42:23.842Z,97629.75
2019-03-08T19:44:31.218Z,97634.39
2019-03-08T19:46:36.384Z,97632.36
2019-03-08T19:48:38.006Z,97632.05
2019-03-08T19:50:54.540Z,97626.60
2019-03-08T19:52:58.010Z,97627.56
2019-03-08T19:55:15.373Z,97634.02
2019-03-08T19:57:22.262Z,97639.97
2019-03-08T19:59:23.921Z,97642.25
2019-03-08T20:01:31.115Z,97639.74
2019-03-08T20:03:33.362Z,97647.36
2019-03-08T20:05:50.838Z,97656.10
2019-03-08T20:07:59.118Z,97677.86
2019-03-08T20:10:15.798Z,97696.05
2019-03-08T20:12:19.993Z,97698.77
2019-03-08T20:14:22.139Z,97693.14
2019-03-08T20:16:39.451Z,97682.04
2019-03-08T20:18:46.823Z,97674.06
2019-03-08T20:20:53.708Z,97675.01
2019-03-08T20:22:55.927Z,97667.10
2019-03-08T20:25:01.024Z,97655.55
2019-03-08T20:27:05.398Z,97652.62
2019-03-08T20:29:07.010Z,97640.66
2019-03-08T20:31:15.269Z,97640.55
2019-03-08T20:33:16.882Z,97644.01
2019-03-08T20:35:33.484Z,97640.13
2019-03-08T20:37:39.690Z,97637.61
2019-03-08T20:39:42.261Z,97642.33
2019-03-08T20:42:04.792Z,97641.05
2019-03-08T20:44:08.069Z,97639.60
2019-03-08T20:46:13.675Z,97637.80
2019-03-08T20:48:15.277Z,97631.56
2019-03-08T20:50:16.886Z,97634.21
2019-03-08T20:52:18.490Z,97634.36
2019-03-08T20:54:22.181Z,97637.81
2019-03-08T20:56:21.744Z,97635.50
2019-03-08T20:58:23.378Z,97630.21
2019-03-08T21:00:24.993Z,97632.88
2019-03-08T21:02:26.629Z,97637.06
2019-03-08T21:04:28.239Z,97642.66
2019-03-08T21:06:29.857Z,97642.97
2019-03-08T21:08:31.457Z,97644.25
2019-03-08T21:10:33.055Z,97643.44
2019-03-08T21:12:34.686Z,97639.55
2019-03-08T21:14:36.333Z,97638.57
2019-03-08T21:16:38.293Z,97642.50
2019-03-08T21:18:39.912Z,97646.25
2019-03-08T21:20:42.523Z,97605.09
2019-03-08T21:22:44.168Z,97641.45
2019-03-08T21:24:45.825Z,97645.28
2019-03-08T21:26:47.412Z,97642.87
2019-03-08T21:28:49.015Z,97638.74
2019-03-08T21:30:50.613Z,97642.36
2019-03-08T21:32:52.245Z,97642.58
2019-03-08T21:34:53.847Z,97641.45
2019-03-08T21:36:55.464Z,97644.32
2019-03-08T21:38:57.086Z,97650.73
2019-03-08T21:40:58.686Z,97655.95
2019-03-08T21:43:00.407Z,97654.82
2019-03-08T21:45:02.040Z,97655.61
2019-03-08T21:47:03.675Z,97653.93
2019-03-08T21:49:05.288Z,97659.56
2019-03-08T21:51:06.886Z,97660.47
2019-03-08T21:53:08.544Z,97663.65
2019-03-08T21:55:10.177Z,97660.30
2019-03-08T21:57:11.773Z,97656.76
2019-03-08T21:59:13.388Z,97660.16
2019-03-08T22:01:16.014Z,97665.78
2019-03-08T22:03:17.621Z,97656.43
2019-03-08T22:05:29.184Z,97662.50
2019-03-08T22:07:30.812Z,97666.29
2019-03-08T22:09:34.331Z,97658.77
2019-03-08T22:11:35.944Z,97654.14
2019-03-08T22:13:37.602Z,97657.62
2019-03-08T22:15:39.233Z,97651.25
2019-03-08T22:17:40.834Z,97650.23
2019-03-08T22:19:42.424Z,97649.83
2019-03-08T22:21:44.031Z,97648.64
2019-03-08T22:23:45.664Z,97647.95
2019-03-08T22:25:47.276Z,97653.20
2019-03-08T22:27:48.877Z,97647.09
2019-03-08T22:29:51.256Z,97647.63
2019-03-08T22:31:52.875Z,97649.50
2019-03-08T22:33:54.467Z,97643.95
2019-03-08T22:35:56.116Z,97642.42
2019-03-08T22:37:57.717Z,97644.22
2019-03-08T22:39:59.388Z,97641.09
2019-03-08T22:42:01.046Z,97642.43
2019-03-08T22:44:02.655Z,97643.41
2019-03-08T22:46:04.316Z,97642.21
2019-03-08T22:48:05.929Z,97634.94
2019-03-08T22:50:07.531Z,97610.99
2019-03-08T22:52:09.221Z,97634.85
2019-03-08T22:54:10.838Z,97620.45
2019-03-08T22:56:12.487Z,97630.79
2019-03-08T22:58:14.115Z,97627.80
2019-03-08T23:00:15.750Z,97615.76
2019-03-08T23:02:17.395Z,97617.05
2019-03-08T23:04:18.995Z,97623.08
2019-03-08T23:06:20.597Z,97623.92
2019-03-08T23:08:22.208Z,97621.38
2019-03-08T23:10:23.848Z,97619.05
2019-03-08T23:12:25.461Z,97609.48
2019-03-08T23:14:27.062Z,97622.36
2019-03-08T23:16:28.691Z,97620.63
2019-03-08T23:18:30.288Z,97621.87
2019-03-08T23:20:31.952Z,97618.30
2019-03-08T23:22:33.563Z,97615.04
2019-03-08T23:24:35.161Z,97615.66
2019-03-08T23:26:39.741Z,97615.51
2019-03-08T23:28:43.240Z,97616.13
2019-03-08T23:30:44.897Z,97607.37
2019-03-08T23:32:46.489Z,97601.66
2019-03-08T23:34:48.084Z,97594.59
2019-03-08T23:36:49.681Z,97602.35
2019-03-08T23:38:51.309Z,97591.44
2019-03-08T23:40:52.957Z,97596.99
2019-03-08T23:42:54.544Z,97617.80
2019-03-08T23:44:56.141Z,97615.54
2019-03-08T23:46:57.749Z,97611.22
2019-03-08T23:48:59.401Z,97614.11
2019-03-08T23:51:01.883Z,97612.22
2019-03-08T23:53:03.677Z,97615.45
2019-03-08T23:55:05.292Z,97612.77
2019-03-08T23:57:06.894Z,97602.01
2019-03-08T23:59:08.493Z,97606.48
